Time;durP1;ratioP1;P1;durP2;ratioP2;P2;SDS_P1;SDS_P2;PMS_P1;PMS_P2;Temp;Humidity;BMP_temperature;BMP_pressure;BME280_temperature;BME280_humidity;BME280_pressure;Samples;Min_cycle;Max_cycle;Signal;HPM_P1;HPM_P2
2023/12/30 00:01:45;;;;;;;15.13;13.63;;;6.40;99.90;;;;;;5124000;27;20121;-84
2023/12/30 00:04:11;;;;;;;17.45;12.70;;;6.40;99.90;;;;;;5137633;27;20103;-82
2023/12/30 00:06:36;;;;;;;18.40;13.93;;;6.40;99.90;;;;;;5108044;27;20047;-83
2023/12/30 00:09:02;;;;;;;24.00;19.95;;;6.40;99.90;;;;;;5107581;27;20142;-83
2023/12/30 00:11:28;;;;;;;17.50;14.95;;;6.40;99.90;;;;;;5106816;27;20039;-84
2023/12/30 00:13:54;;;;;;;15.57;14.30;;;6.50;99.90;;;;;;5123060;27;20046;-84
2023/12/30 00:16:19;;;;;;;14.45;13.10;;;6.40;99.90;;;;;;5117574;27;20106;-84
2023/12/30 00:18:45;;;;;;;16.65;13.63;;;6.30;99.90;;;;;;5111422;27;20046;-83
2023/12/30 00:21:11;;;;;;;15.20;13.63;;;6.30;99.90;;;;;;5100721;27;20035;-84
2023/12/30 00:23:39;;;;;;;15.57;13.80;;;6.30;99.90;;;;;;5143622;27;20051;-81
2023/12/30 00:26:04;;;;;;;13.80;12.50;;;6.30;99.90;;;;;;5110290;27;20043;-83
2023/12/30 00:28:30;;;;;;;16.38;13.63;;;6.40;99.90;;;;;;5115564;27;20106;-83
2023/12/30 00:30:56;;;;;;;15.48;14.15;;;6.40;99.90;;;;;;5103419;27;20087;-83
2023/12/30 00:33:21;;;;;;;14.23;12.90;;;6.40;99.90;;;;;;5128464;27;20043;-83
2023/12/30 00:35:47;;;;;;;14.40;13.00;;;6.40;99.90;;;;;;5146110;27;20039;-85
2023/12/30 00:38:12;;;;;;;16.10;13.90;;;6.40;99.90;;;;;;5115356;27;20074;-84
2023/12/30 00:40:38;;;;;;;14.32;13.23;;;6.30;99.90;;;;;;5117060;27;20506;-85
2023/12/30 00:43:04;;;;;;;15.20;12.90;;;6.30;99.90;;;;;;5121436;27;20384;-83
2023/12/30 00:45:29;;;;;;;14.27;13.18;;;6.30;99.90;;;;;;5146452;27;20378;-82
2023/12/30 00:47:56;;;;;;;15.20;13.68;;;6.40;99.90;;;;;;5141406;27;20045;-85
2023/12/30 00:50:21;;;;;;;14.88;13.50;;;6.40;99.90;;;;;;5141195;27;20084;-85
2023/12/30 00:52:47;;;;;;;14.88;13.48;;;6.50;99.90;;;;;;5124262;27;20039;-84
2023/12/30 00:55:13;;;;;;;15.93;14.07;;;6.30;99.90;;;;;;5134246;27;20039;-84
2023/12/30 00:57:38;;;;;;;15.93;12.38;;;6.30;99.90;;;;;;5119685;27;20054;-84
2023/12/30 01:00:05;;;;;;;15.30;13.45;;;6.30;99.90;;;;;;5108120;27;20049;-84
2023/12/30 01:02:30;;;;;;;15.25;12.00;;;6.30;99.90;;;;;;5128551;27;20123;-84
2023/12/30 01:04:56;;;;;;;15.02;12.20;;;6.20;99.90;;;;;;5130384;27;20074;-85
2023/12/30 01:07:22;;;;;;;17.48;12.38;;;6.20;99.90;;;;;;5122717;27;20864;-83
2023/12/30 01:09:47;;;;;;;13.35;12.15;;;6.30;99.90;;;;;;5148347;27;20554;-84
2023/12/30 01:12:13;;;;;;;13.50;12.00;;;6.30;99.90;;;;;;5108460;27;20038;-85
2023/12/30 01:14:39;;;;;;;13.63;12.40;;;6.20;99.90;;;;;;5122931;27;20041;-86
2023/12/30 01:17:05;;;;;;;15.93;13.20;;;6.30;99.90;;;;;;5128142;27;20027;-85
2023/12/30 01:19:30;;;;;;;13.32;12.15;;;6.30;99.90;;;;;;5133410;27;20128;-85
2023/12/30 01:21:56;;;;;;;14.15;12.55;;;6.20;99.90;;;;;;5146674;27;20035;-85
2023/12/30 01:24:22;;;;;;;14.35;11.80;;;6.20;99.90;;;;;;5106088;27;20092;-84
2023/12/30 01:26:48;;;;;;;15.02;12.18;;;6.10;99.90;;;;;;5119806;27;20166;-85
2023/12/30 01:29:14;;;;;;;14.35;13.15;;;6.00;99.90;;;;;;5125248;27;20798;-84
2023/12/30 01:31:39;;;;;;;15.88;14.38;;;6.00;99.90;;;;;;5105839;27;20122;-84
2023/12/30 01:34:05;;;;;;;14.68;12.95;;;6.00;99.90;;;;;;5125550;27;20406;-84
2023/12/30 01:36:31;;;;;;;15.52;12.13;;;6.00;99.90;;;;;;5124069;27;20050;-85
2023/12/30 01:38:56;;;;;;;13.77;12.30;;;5.90;99.90;;;;;;5118192;27;20038;-85
2023/12/30 01:41:22;;;;;;;14.20;12.90;;;6.00;99.90;;;;;;5119672;27;20042;-83
2023/12/30 01:43:48;;;;;;;13.25;11.90;;;6.10;99.90;;;;;;5125126;27;20042;-84
2023/12/30 01:46:13;;;;;;;13.88;11.82;;;6.10;99.90;;;;;;5099797;27;20042;-84
2023/12/30 01:48:39;;;;;;;18.85;12.85;;;6.10;99.90;;;;;;5121715;27;20043;-85
2023/12/30 01:51:08;;;;;;;12.68;11.52;;;6.10;99.90;;;;;;5108247;27;20046;-85
2023/12/30 01:53:38;;;;;;;12.45;11.15;;;6.10;99.90;;;;;;5134717;27;20039;-85
2023/12/30 01:56:05;;;;;;;12.68;11.57;;;6.00;99.90;;;;;;5113143;27;20543;-84
2023/12/30 01:58:32;;;;;;;13.38;12.02;;;6.00;99.90;;;;;;5112307;27;20409;-83
2023/12/30 02:01:00;;;;;;;13.80;12.45;;;6.00;99.90;;;;;;5126221;27;20054;-83
2023/12/30 02:03:26;;;;;;;15.77;11.93;;;6.00;99.90;;;;;;5133219;27;20735;-84
2023/12/30 02:05:52;;;;;;;13.85;11.55;;;6.00;99.90;;;;;;5112982;27;20047;-84
2023/12/30 02:08:18;;;;;;;12.18;10.80;;;6.00;99.90;;;;;;5125290;27;20045;-84
2023/12/30 02:10:44;;;;;;;14.45;13.10;;;6.10;99.90;;;;;;5138172;27;20575;-84
2023/12/30 02:13:10;;;;;;;16.00;11.38;;;6.10;99.90;;;;;;5107489;27;20110;-84
2023/12/30 02:15:36;;;;;;;14.00;12.60;;;6.20;99.90;;;;;;5143187;27;20061;-85
2023/12/30 02:18:02;;;;;;;12.27;11.00;;;6.20;99.90;;;;;;5118978;27;20487;-84
2023/12/30 02:20:30;;;;;;;14.93;12.07;;;6.30;99.90;;;;;;5123422;27;20038;-84
2023/12/30 02:22:56;;;;;;;13.73;11.02;;;6.40;99.90;;;;;;5139908;27;20062;-84
2023/12/30 02:25:22;;;;;;;15.20;11.40;;;6.50;99.90;;;;;;5123524;27;20043;-84
2023/12/30 02:27:47;;;;;;;20.58;11.20;;;6.50;99.90;;;;;;5097576;27;20031;-85
2023/12/30 02:30:13;;;;;;;11.95;10.75;;;6.70;99.90;;;;;;5103878;27;20494;-85
2023/12/30 02:32:40;;;;;;;15.98;12.10;;;6.70;99.90;;;;;;5097457;27;20038;-85
2023/12/30 02:35:06;;;;;;;12.88;11.55;;;6.70;99.90;;;;;;5141888;27;20111;-83
2023/12/30 02:37:31;;;;;;;13.77;10.80;;;6.80;99.90;;;;;;5121916;27;20042;-84
2023/12/30 02:39:57;;;;;;;15.95;11.65;;;6.90;99.90;;;;;;5109267;27;20046;-84
2023/12/30 02:42:23;;;;;;;14.25;10.85;;;6.90;99.90;;;;;;5098301;27;20047;-85
2023/12/30 02:44:49;;;;;;;11.73;10.57;;;6.90;99.90;;;;;;5117135;27;20050;-83
2023/12/30 02:47:15;;;;;;;12.00;10.90;;;6.90;99.90;;;;;;5104987;27;20121;-84
2023/12/30 02:49:44;;;;;;;19.10;11.55;;;7.00;99.90;;;;;;5118025;27;20122;-85
2023/12/30 02:52:10;;;;;;;16.17;10.43;;;7.00;99.90;;;;;;5103934;27;20117;-85
2023/12/30 02:54:36;;;;;;;14.10;11.23;;;7.00;99.90;;;;;;5125338;27;20160;-85
2023/12/30 02:57:03;;;;;;;13.13;10.80;;;7.00;99.90;;;;;;5144421;27;20031;-84
2023/12/30 02:59:32;;;;;;;11.57;10.45;;;7.00;99.90;;;;;;5102620;27;20039;-83
2023/12/30 03:01:58;;;;;;;14.85;10.73;;;7.00;99.90;;;;;;5118001;27;20046;-83
2023/12/30 03:04:24;;;;;;;13.18;11.35;;;6.90;99.90;;;;;;5129381;27;20043;-84
2023/12/30 03:06:52;;;;;;;13.10;11.50;;;7.00;99.90;;;;;;5115728;27;20043;-82
2023/12/30 03:09:18;;;;;;;15.93;11.57;;;7.00;99.90;;;;;;5106424;27;20031;-84
2023/12/30 03:11:46;;;;;;;12.20;11.15;;;7.10;99.90;;;;;;5102695;27;20045;-83
2023/12/30 03:14:12;;;;;;;14.30;12.00;;;7.10;99.90;;;;;;5119086;27;20045;-85
2023/12/30 03:16:38;;;;;;;13.80;10.77;;;7.10;99.90;;;;;;5131099;27;20117;-83
2023/12/30 03:19:03;;;;;;;13.48;11.43;;;7.10;99.90;;;;;;5116945;27;20219;-84
2023/12/30 03:21:29;;;;;;;12.88;11.18;;;7.10;99.90;;;;;;5118690;27;20046;-84
2023/12/30 03:23:55;;;;;;;15.40;11.07;;;7.10;99.90;;;;;;5082427;28;20051;-84
2023/12/30 03:26:20;;;;;;;12.80;11.15;;;7.20;99.90;;;;;;5091188;27;20042;-83
2023/12/30 03:28:46;;;;;;;14.82;11.75;;;7.20;99.90;;;;;;5093951;28;20041;-84
2023/12/30 03:31:27;;;;;;;15.07;13.65;;;7.10;99.90;;;;;;5090435;28;20506;-83
2023/12/30 03:33:53;;;;;;;15.82;10.77;;;7.20;99.90;;;;;;5092608;27;20131;-85
2023/12/30 03:36:19;;;;;;;15.15;11.20;;;7.10;99.90;;;;;;5103542;27;20050;-84
2023/12/30 03:38:48;;;;;;;18.65;17.10;;;7.10;99.90;;;;;;5085253;27;20043;-84
2023/12/30 03:41:13;;;;;;;13.85;11.55;;;7.10;99.90;;;;;;5074153;28;20531;-83
2023/12/30 03:43:39;;;;;;;18.73;11.82;;;7.10;99.90;;;;;;5077850;27;20047;-82
2023/12/30 03:46:05;;;;;;;15.52;12.18;;;7.10;99.90;;;;;;5088840;27;20534;-83
2023/12/30 03:48:31;;;;;;;23.38;21.23;;;7.00;99.90;;;;;;5084440;27;20038;-83
2023/12/30 03:50:56;;;;;;;22.38;20.27;;;7.10;99.90;;;;;;5097170;28;20050;-84
2023/12/30 03:53:22;;;;;;;12.20;10.88;;;7.10;99.90;;;;;;5101980;27;20437;-84
2023/12/30 03:55:48;;;;;;;14.20;11.63;;;7.00;99.90;;;;;;5085712;28;20035;-83
2023/12/30 03:58:13;;;;;;;14.48;10.70;;;7.00;99.90;;;;;;5115535;28;20027;-83
2023/12/30 04:00:39;;;;;;;16.23;11.95;;;6.90;99.90;;;;;;5076492;28;20031;-84
2023/12/30 04:03:05;;;;;;;14.77;11.02;;;6.80;99.90;;;;;;5086974;28;20167;-84
2023/12/30 04:05:30;;;;;;;14.18;11.27;;;6.80;99.90;;;;;;5104080;28;20049;-85
2023/12/30 04:07:56;;;;;;;12.30;11.20;;;6.70;99.90;;;;;;5088429;28;20494;-84
2023/12/30 04:10:21;;;;;;;16.20;11.40;;;6.60;99.90;;;;;;5090322;28;20810;-84
2023/12/30 04:12:47;;;;;;;16.48;11.63;;;6.60;99.90;;;;;;5124148;28;20097;-84
2023/12/30 04:15:13;;;;;;;15.80;11.38;;;6.60;99.90;;;;;;5095287;28;20039;-84
2023/12/30 04:17:38;;;;;;;12.57;11.48;;;6.70;99.90;;;;;;5096498;28;20121;-84
2023/12/30 04:20:08;;;;;;;14.35;11.27;;;6.80;99.90;;;;;;5080681;28;20071;-85
2023/12/30 04:22:34;;;;;;;16.40;12.18;;;6.80;99.90;;;;;;5100158;28;20059;-83
2023/12/30 04:25:00;;;;;;;15.20;11.63;;;6.90;99.90;;;;;;5115008;28;20043;-84
2023/12/30 04:27:26;;;;;;;12.73;11.45;;;6.90;99.90;;;;;;5095173;27;20039;-84
2023/12/30 04:29:51;;;;;;;15.30;11.70;;;7.00;99.90;;;;;;5104668;27;20034;-84
2023/12/30 04:32:19;;;;;;;15.27;11.82;;;7.00;99.90;;;;;;5117700;27;20118;-84
2023/12/30 04:34:46;;;;;;;17.67;11.98;;;7.00;99.90;;;;;;5130718;27;20038;-84
2023/12/30 04:37:11;;;;;;;13.70;12.40;;;7.00;99.90;;;;;;5107237;27;20702;-84
2023/12/30 04:39:37;;;;;;;14.98;13.50;;;7.00;99.90;;;;;;5113187;27;20465;-83
2023/12/30 04:42:03;;;;;;;13.93;11.05;;;7.00;99.90;;;;;;5098559;27;20043;-84
2023/12/30 04:44:28;;;;;;;13.32;10.73;;;7.10;99.90;;;;;;5098725;27;20038;-84
2023/12/30 04:46:54;;;;;;;16.48;11.63;;;7.10;99.90;;;;;;5121241;27;20042;-86
2023/12/30 04:49:20;;;;;;;13.88;11.57;;;7.10;99.90;;;;;;5120440;27;20459;-84
2023/12/30 04:51:45;;;;;;;11.98;10.82;;;7.10;99.90;;;;;;5099738;27;20111;-84
2023/12/30 04:54:11;;;;;;;13.05;10.90;;;7.10;99.90;;;;;;5125218;27;20035;-84
2023/12/30 04:56:36;;;;;;;13.30;11.75;;;7.10;99.90;;;;;;5124241;27;20043;-84
2023/12/30 04:59:05;;;;;;;14.82;10.48;;;7.00;99.90;;;;;;5103382;27;20129;-86
2023/12/30 05:01:31;;;;;;;17.73;12.15;;;7.00;99.90;;;;;;5122966;27;20054;-84
2023/12/30 05:03:56;;;;;;;12.57;11.30;;;7.00;99.90;;;;;;5119717;27;20812;-84
2023/12/30 05:06:24;;;;;;;14.35;11.68;;;7.00;99.90;;;;;;5130346;27;20062;-84
2023/12/30 05:08:53;;;;;;;15.35;11.07;;;6.90;99.90;;;;;;5099716;27;20045;-83
2023/12/30 05:11:20;;;;;;;17.52;11.43;;;6.90;99.90;;;;;;5123478;27;20122;-84
2023/12/30 05:13:46;;;;;;;15.27;11.30;;;7.00;99.90;;;;;;5138248;27;20047;-84
2023/12/30 05:16:12;;;;;;;11.93;10.60;;;6.90;99.90;;;;;;5119608;27;20058;-84
2023/12/30 05:18:38;;;;;;;12.88;11.02;;;6.90;99.90;;;;;;5110910;27;20034;-84
2023/12/30 05:21:04;;;;;;;18.60;11.43;;;6.90;99.90;;;;;;5116489;27;20599;-83
2023/12/30 05:23:32;;;;;;;15.90;10.88;;;6.80;99.90;;;;;;5106184;27;20043;-84
2023/12/30 05:25:57;;;;;;;15.13;12.13;;;6.80;99.90;;;;;;5100684;27;20039;-84
2023/12/30 05:28:23;;;;;;;13.85;10.65;;;6.80;99.90;;;;;;5108680;27;20049;-84
2023/12/30 05:30:49;;;;;;;18.80;12.60;;;6.70;99.90;;;;;;5123582;27;20035;-84
2023/12/30 05:33:15;;;;;;;19.23;13.20;;;6.80;99.90;;;;;;5144216;27;20092;-85
2023/12/30 05:35:40;;;;;;;13.18;11.88;;;6.80;99.90;;;;;;5098755;27;20050;-83
2023/12/30 05:38:06;;;;;;;12.50;11.15;;;6.80;99.90;;;;;;5113187;27;20421;-83
2023/12/30 05:40:32;;;;;;;17.50;11.35;;;6.80;99.90;;;;;;5139500;27;20046;-83
2023/12/30 05:42:58;;;;;;;12.75;11.45;;;6.80;99.90;;;;;;5126442;27;20047;-83
2023/12/30 05:45:23;;;;;;;15.40;11.40;;;6.80;99.90;;;;;;5127018;27;20059;-84
2023/12/30 05:47:49;;;;;;;14.93;11.80;;;6.90;99.90;;;;;;5109229;27;20026;-84
2023/12/30 05:50:15;;;;;;;16.60;12.57;;;6.90;99.90;;;;;;5118345;27;20038;-83
2023/12/30 05:52:40;;;;;;;12.40;11.18;;;7.00;99.90;;;;;;5126213;27;20067;-84
2023/12/30 05:55:06;;;;;;;15.15;12.30;;;7.10;99.90;;;;;;5135562;27;20157;-83
2023/12/30 05:57:32;;;;;;;22.08;18.45;;;7.10;99.90;;;;;;5116791;27;20043;-84
2023/12/30 05:59:58;;;;;;;15.88;12.60;;;7.00;99.90;;;;;;5111943;27;20473;-84
2023/12/30 06:02:23;;;;;;;14.00;12.43;;;7.10;99.90;;;;;;5110710;27;20045;-84
2023/12/30 06:04:49;;;;;;;17.17;12.38;;;7.10;99.90;;;;;;5109525;27;20042;-84
2023/12/30 06:07:15;;;;;;;14.00;12.00;;;7.10;99.90;;;;;;5112949;27;20039;-82
2023/12/30 06:09:44;;;;;;;14.52;11.43;;;7.00;99.90;;;;;;5102888;27;20126;-84
2023/12/30 06:12:10;;;;;;;19.88;12.15;;;7.10;99.90;;;;;;5130258;27;20092;-83
2023/12/30 06:14:36;;;;;;;19.55;12.18;;;7.10;99.90;;;;;;5099357;27;20031;-84
2023/12/30 06:17:02;;;;;;;17.10;11.27;;;7.10;99.90;;;;;;5129455;27;20482;-84
2023/12/30 06:19:28;;;;;;;14.48;11.10;;;7.00;99.90;;;;;;5117506;27;20043;-84
2023/12/30 06:21:54;;;;;;;15.02;12.77;;;7.10;99.90;;;;;;5142531;27;20049;-83
2023/12/30 06:24:19;;;;;;;16.20;12.63;;;7.10;99.90;;;;;;5126103;27;20070;-83
2023/12/30 06:26:45;;;;;;;17.25;11.25;;;7.00;99.90;;;;;;5107952;27;20041;-84
2023/12/30 06:29:11;;;;;;;13.95;11.43;;;7.10;99.90;;;;;;5124448;27;20041;-85
2023/12/30 06:31:41;;;;;;;16.38;12.25;;;7.00;99.90;;;;;;5121714;27;20091;-84
2023/12/30 06:34:07;;;;;;;14.18;11.48;;;7.00;99.90;;;;;;5127454;27;20149;-84
2023/12/30 06:36:32;;;;;;;15.15;11.77;;;7.00;99.90;;;;;;5118537;27;20126;-84
2023/12/30 06:38:58;;;;;;;16.05;12.35;;;7.00;99.90;;;;;;5101335;27;20039;-83
2023/12/30 06:41:24;;;;;;;17.13;11.52;;;7.00;99.90;;;;;;5124701;27;20087;-84
2023/12/30 06:43:49;;;;;;;14.80;11.63;;;6.90;99.90;;;;;;5138827;27;20039;-84
2023/12/30 06:46:21;;;;;;;17.67;11.25;;;6.90;99.90;;;;;;5107783;27;20043;-84
2023/12/30 06:48:47;;;;;;;13.15;11.20;;;6.80;99.90;;;;;;5100239;27;20039;-83
2023/12/30 06:51:13;;;;;;;15.30;11.35;;;6.80;99.90;;;;;;5119771;27;20039;-84
2023/12/30 06:53:38;;;;;;;16.77;11.85;;;6.80;99.90;;;;;;5121478;27;20815;-84
2023/12/30 06:56:07;;;;;;;17.17;11.80;;;6.70;99.90;;;;;;5129526;27;20409;-84
2023/12/30 06:58:33;;;;;;;17.40;11.93;;;6.70;99.90;;;;;;5144719;27;20487;-84
2023/12/30 07:00:58;;;;;;;15.60;12.13;;;6.70;99.90;;;;;;5108890;27;20080;-83
2023/12/30 07:03:24;;;;;;;15.57;11.43;;;6.70;99.90;;;;;;5113584;27;20099;-84
2023/12/30 07:05:50;;;;;;;13.88;12.02;;;6.70;99.90;;;;;;5102813;27;20456;-84
2023/12/30 07:08:16;;;;;;;18.25;12.32;;;6.70;99.90;;;;;;5125205;27;20027;-84
2023/12/30 07:10:42;;;;;;;12.10;10.93;;;6.70;99.90;;;;;;5127772;27;20368;-84
2023/12/30 07:13:08;;;;;;;16.45;11.50;;;6.80;99.90;;;;;;5105179;27;20064;-83
2023/12/30 07:15:33;;;;;;;17.17;11.07;;;6.80;99.90;;;;;;5114450;27;20498;-84
2023/12/30 07:17:59;;;;;;;14.07;12.50;;;6.70;99.90;;;;;;5137179;27;20043;-84
2023/12/30 07:20:26;;;;;;;16.05;12.18;;;6.80;99.90;;;;;;5139214;27;20088;-83
2023/12/30 07:22:53;;;;;;;15.25;11.75;;;6.70;99.90;;;;;;5100042;27;20491;-83
2023/12/30 07:25:19;;;;;;;15.55;11.73;;;6.70;99.90;;;;;;5107294;27;20039;-85
2023/12/30 07:27:44;;;;;;;16.67;11.70;;;6.70;99.90;;;;;;5128405;27;20034;-84
2023/12/30 07:30:11;;;;;;;14.45;12.50;;;6.70;99.90;;;;;;5118811;27;20049;-84
2023/12/30 07:32:37;;;;;;;15.15;12.35;;;6.70;99.90;;;;;;5136168;27;20074;-84
2023/12/30 07:35:05;;;;;;;13.52;12.15;;;6.70;99.90;;;;;;5096822;27;20104;-84
2023/12/30 07:37:32;;;;;;;15.65;11.98;;;6.70;99.90;;;;;;5128166;27;20110;-84
2023/12/30 07:39:58;;;;;;;13.73;11.82;;;6.70;99.90;;;;;;5103552;27;20123;-84
2023/12/30 07:42:23;;;;;;;13.50;11.82;;;6.70;99.90;;;;;;5117799;27;20049;-83
2023/12/30 07:44:49;;;;;;;14.30;11.38;;;6.70;99.90;;;;;;5104829;27;20056;-84
2023/12/30 07:47:15;;;;;;;15.90;11.68;;;6.70;99.90;;;;;;5105068;27;20031;-84
2023/12/30 07:49:40;;;;;;;16.63;12.25;;;6.70;99.90;;;;;;5118631;27;20031;-84
2023/12/30 07:52:06;;;;;;;13.18;11.70;;;6.80;99.90;;;;;;5095806;27;20452;-85
2023/12/30 07:54:31;;;;;;;13.63;12.00;;;6.90;99.90;;;;;;5124503;27;20071;-84
2023/12/30 07:56:57;;;;;;;16.75;11.55;;;6.90;99.90;;;;;;5123952;27;20074;-84
2023/12/30 07:59:23;;;;;;;14.88;13.38;;;6.90;99.90;;;;;;5098104;28;20039;-84
2023/12/30 08:01:49;;;;;;;13.18;11.80;;;6.90;99.90;;;;;;5135330;27;20035;-84
2023/12/30 08:04:15;;;;;;;18.15;11.80;;;6.90;99.90;;;;;;5130605;27;20062;-84
2023/12/30 08:06:40;;;;;;;16.52;12.57;;;6.90;99.90;;;;;;5131483;27;20067;-85
2023/12/30 08:09:07;;;;;;;17.90;12.32;;;6.90;99.90;;;;;;5136196;27;20571;-84
2023/12/30 08:11:35;;;;;;;14.35;11.35;;;6.90;99.90;;;;;;5114913;27;20039;-84
2023/12/30 08:14:01;;;;;;;13.07;11.15;;;6.90;99.90;;;;;;5121219;27;20031;-84
2023/12/30 08:16:26;;;;;;;12.50;11.23;;;6.90;99.90;;;;;;5135913;27;20099;-82
2023/12/30 08:18:52;;;;;;;13.25;11.95;;;6.90;99.90;;;;;;5124793;27;20400;-84
2023/12/30 08:21:17;;;;;;;13.55;11.95;;;6.90;99.90;;;;;;5124883;27;20042;-84
2023/12/30 08:23:43;;;;;;;14.82;11.85;;;6.80;99.90;;;;;;5122986;27;20085;-84
2023/12/30 08:26:09;;;;;;;13.65;12.00;;;6.80;99.90;;;;;;5143794;27;20043;-84
2023/12/30 08:28:35;;;;;;;16.55;11.98;;;6.90;99.90;;;;;;5125543;27;20042;-84
2023/12/30 08:31:01;;;;;;;16.30;12.25;;;6.90;99.90;;;;;;5106835;27;20047;-84
2023/12/30 08:33:27;;;;;;;14.95;11.23;;;6.80;99.90;;;;;;5105784;27;20031;-84
2023/12/30 08:35:53;;;;;;;17.83;11.98;;;6.70;99.90;;;;;;5121922;27;20038;-84
2023/12/30 08:38:19;;;;;;;15.27;12.40;;;6.70;99.90;;;;;;5124806;27;20122;-84
2023/12/30 08:40:44;;;;;;;15.90;12.65;;;6.70;99.90;;;;;;5140533;27;20149;-84
2023/12/30 08:43:11;;;;;;;14.60;12.88;;;6.80;99.90;;;;;;5111692;27;20121;-84
2023/12/30 08:45:38;;;;;;;19.60;13.05;;;6.80;99.90;;;;;;5128794;27;20045;-85
2023/12/30 08:48:04;;;;;;;13.20;11.88;;;6.70;99.90;;;;;;5108395;27;20057;-84
2023/12/30 08:50:33;;;;;;;19.67;12.60;;;6.80;99.90;;;;;;5140492;27;20038;-84
2023/12/30 08:52:58;;;;;;;15.60;12.82;;;6.70;99.90;;;;;;5109423;27;20116;-84
2023/12/30 08:55:25;;;;;;;14.05;12.70;;;6.70;99.90;;;;;;5144994;27;20050;-83
2023/12/30 08:57:50;;;;;;;16.52;12.68;;;6.70;99.90;;;;;;5122089;27;20039;-83
2023/12/30 09:00:16;;;;;;;14.60;12.45;;;6.80;99.90;;;;;;5100525;27;20046;-84
2023/12/30 09:02:46;;;;;;;17.33;11.25;;;6.90;99.90;;;;;;5112343;27;20482;-84
2023/12/30 09:05:17;;;;;;;16.17;12.70;;;6.90;99.90;;;;;;5106754;27;20043;-84
2023/12/30 09:07:43;;;;;;;14.50;12.77;;;6.90;99.90;;;;;;5119013;27;20043;-84
2023/12/30 09:10:09;;;;;;;19.70;13.75;;;6.90;99.90;;;;;;5117864;27;20042;-84
2023/12/30 09:12:34;;;;;;;15.23;12.55;;;7.00;99.90;;;;;;5119474;27;20070;-84
2023/12/30 09:15:00;;;;;;;15.32;12.02;;;7.00;99.90;;;;;;5124083;27;20116;-84
2023/12/30 09:17:25;;;;;;;16.40;11.57;;;7.00;99.90;;;;;;5122205;27;20042;-83
2023/12/30 09:19:51;;;;;;;13.07;11.77;;;7.10;99.90;;;;;;5110695;27;20070;-84
2023/12/30 09:22:17;;;;;;;17.83;11.68;;;7.10;99.90;;;;;;5151906;27;20779;-84
2023/12/30 09:24:43;;;;;;;14.55;11.43;;;7.10;99.90;;;;;;5126792;27;20043;-84
2023/12/30 09:27:08;;;;;;;14.52;11.27;;;7.20;99.90;;;;;;5105848;27;20050;-85
2023/12/30 09:29:34;;;;;;;12.43;11.10;;;7.30;99.90;;;;;;5117681;27;20039;-84
2023/12/30 09:32:00;;;;;;;12.77;11.45;;;7.30;99.90;;;;;;5124141;27;20046;-84
2023/12/30 09:34:26;;;;;;;18.45;12.07;;;7.40;99.90;;;;;;5124122;27;20123;-84
2023/12/30 09:36:51;;;;;;;13.30;11.93;;;7.40;99.90;;;;;;5122027;27;20603;-84
2023/12/30 09:39:17;;;;;;;12.60;11.27;;;7.40;99.90;;;;;;5107461;27;20034;-84
2023/12/30 09:41:42;;;;;;;15.50;11.77;;;7.50;99.90;;;;;;5126568;27;20498;-84
2023/12/30 09:44:09;;;;;;;15.38;12.00;;;7.50;99.90;;;;;;5131494;27;20390;-84
2023/12/30 09:46:36;;;;;;;16.38;10.75;;;7.50;99.90;;;;;;5113858;27;20057;-84
2023/12/30 09:49:03;;;;;;;14.55;10.82;;;7.50;99.90;;;;;;5115782;27;20138;-83
2023/12/30 09:51:32;;;;;;;13.82;10.07;;;7.50;99.90;;;;;;5150195;27;20142;-84
2023/12/30 09:53:58;;;;;;;13.45;10.90;;;7.60;99.90;;;;;;5105797;27;20432;-83
2023/12/30 09:56:25;;;;;;;14.52;11.02;;;7.60;99.90;;;;;;5107081;27;20424;-84
2023/12/30 09:58:55;;;;;;;13.70;10.90;;;7.70;99.90;;;;;;5123741;27;20042;-83
2023/12/30 10:01:21;;;;;;;14.40;10.10;;;7.80;99.90;;;;;;5123638;27;20035;-84
2023/12/30 10:03:47;;;;;;;16.50;10.70;;;7.80;99.90;;;;;;5120188;27;20039;-84
2023/12/30 10:06:17;;;;;;;14.52;10.55;;;7.80;99.90;;;;;;5102923;27;20090;-84
2023/12/30 10:08:43;;;;;;;11.75;10.57;;;7.90;99.90;;;;;;5105358;27;20067;-83
2023/12/30 10:11:10;;;;;;;14.52;11.35;;;8.00;99.90;;;;;;5132398;27;20035;-83
2023/12/30 10:13:39;;;;;;;12.57;9.85;;;8.00;99.90;;;;;;5135924;27;20494;-84
2023/12/30 10:16:06;;;;;;;13.50;10.30;;;8.10;99.90;;;;;;5143725;27;20584;-84
2023/12/30 10:18:32;;;;;;;14.70;10.98;;;8.10;99.90;;;;;;5099833;27;20049;-83
2023/12/30 10:20:59;;;;;;;12.13;10.00;;;8.10;99.90;;;;;;5123658;27;20038;-84
2023/12/30 10:23:29;;;;;;;10.60;9.55;;;8.10;99.90;;;;;;5103308;27;20066;-85
2023/12/30 10:25:55;;;;;;;10.63;9.57;;;8.10;99.90;;;;;;5125246;27;20043;-83
2023/12/30 10:28:21;;;;;;;12.45;10.50;;;8.20;99.90;;;;;;5102342;27;21491;-82
2023/12/30 10:30:47;;;;;;;13.93;9.85;;;8.20;99.90;;;;;;5122459;27;20074;-83
2023/12/30 10:33:17;;;;;;;12.60;9.95;;;8.20;99.90;;;;;;5109721;27;20035;-83
2023/12/30 10:35:44;;;;;;;12.18;9.45;;;8.20;99.90;;;;;;5105938;27;20085;-84
2023/12/30 10:38:13;;;;;;;13.73;9.82;;;8.20;99.90;;;;;;5118498;27;20040;-83
2023/12/30 10:40:40;;;;;;;15.07;10.43;;;8.30;99.90;;;;;;5109888;27;20074;-84
2023/12/30 10:43:07;;;;;;;10.77;9.35;;;8.30;99.90;;;;;;5131829;27;20038;-84
2023/12/30 10:45:33;;;;;;;12.90;9.52;;;8.40;99.90;;;;;;5143300;27;20078;-84
2023/12/30 10:48:00;;;;;;;10.73;8.43;;;8.40;99.90;;;;;;5111668;27;20073;-84
2023/12/30 10:50:28;;;;;;;11.52;9.02;;;8.50;99.90;;;;;;5123207;27;20034;-84
2023/12/30 10:53:20;;;;;;;10.55;9.50;;;8.50;99.90;;;;;;5124498;27;20047;-83
2023/12/30 10:55:53;;;;;;;11.52;9.50;;;8.50;99.90;;;;;;5122897;27;20593;-83
2023/12/30 10:58:20;;;;;;;14.60;9.98;;;8.50;99.90;;;;;;5105901;27;20091;-83
2023/12/30 11:00:53;;;;;;;14.75;9.07;;;8.60;99.90;;;;;;5122186;27;20039;-83
2023/12/30 11:03:21;;;;;;;13.50;9.38;;;8.60;99.90;;;;;;5113680;27;20487;-83
2023/12/30 11:06:00;;;;;;;12.18;9.70;;;8.60;99.90;;;;;;5115321;27;20046;-84
2023/12/30 11:08:26;;;;;;;11.30;8.80;;;8.70;99.90;;;;;;5123448;27;20440;-83
2023/12/30 11:10:52;;;;;;;12.30;8.65;;;8.70;99.90;;;;;;5117725;27;20031;-82
2023/12/30 11:13:20;;;;;;;10.20;8.43;;;8.80;99.90;;;;;;5103357;27;20042;-83
2023/12/30 11:15:46;;;;;;;11.60;8.55;;;8.80;99.90;;;;;;5139338;27;20050;-83
2023/12/30 11:18:15;;;;;;;13.95;8.23;;;8.90;99.90;;;;;;5105982;27;20402;-83
2023/12/30 11:20:48;;;;;;;19.13;8.95;;;9.00;99.90;;;;;;5114958;27;20049;-83
2023/12/30 11:23:19;;;;;;;12.48;9.02;;;9.00;99.90;;;;;;5097241;27;20046;-83
2023/12/30 11:25:48;;;;;;;13.63;8.73;;;9.00;99.90;;;;;;5105217;27;20042;-84
2023/12/30 11:28:18;;;;;;;13.77;8.80;;;9.00;99.90;;;;;;5142700;27;20766;-83
2023/12/30 11:30:45;;;;;;;10.82;8.35;;;8.90;99.90;;;;;;5120736;27;20027;-83
2023/12/30 11:33:13;;;;;;;11.63;8.40;;;8.90;99.90;;;;;;5124836;27;20041;-84
2023/12/30 11:35:39;;;;;;;15.60;8.73;;;8.90;99.90;;;;;;5110793;27;20077;-83
2023/12/30 11:38:09;;;;;;;11.68;8.68;;;8.90;99.90;;;;;;5098091;27;20043;-85
2023/12/30 11:40:41;;;;;;;14.68;9.05;;;9.00;99.90;;;;;;5123517;27;20077;-84
2023/12/30 11:43:10;;;;;;;13.13;8.93;;;9.00;99.90;;;;;;5103144;27;20078;-84
2023/12/30 11:45:37;;;;;;;11.65;8.90;;;9.00;99.90;;;;;;5105744;27;20042;-83
2023/12/30 11:48:03;;;;;;;12.88;9.32;;;9.00;99.90;;;;;;5132260;27;20046;-82
2023/12/30 11:50:29;;;;;;;13.43;8.57;;;9.10;99.90;;;;;;5116617;27;20043;-83
2023/12/30 11:52:56;;;;;;;12.30;9.27;;;9.10;99.90;;;;;;5114236;27;20039;-83
2023/12/30 11:55:23;;;;;;;11.15;8.75;;;9.00;99.90;;;;;;5118658;27;20136;-83
2023/12/30 11:57:51;;;;;;;11.75;8.95;;;8.90;99.90;;;;;;5143114;27;20554;-82
2023/12/30 12:00:17;;;;;;;11.32;9.07;;;8.80;99.90;;;;;;5123398;27;20051;-83
2023/12/30 12:02:43;;;;;;;16.48;9.73;;;8.60;99.90;;;;;;5141297;27;20111;-84
2023/12/30 12:05:08;;;;;;;11.48;9.30;;;8.50;99.90;;;;;;5124431;27;20042;-84
2023/12/30 12:07:34;;;;;;;14.85;9.95;;;8.40;99.90;;;;;;5113352;27;20026;-83
2023/12/30 12:10:00;;;;;;;13.45;9.65;;;8.30;99.90;;;;;;5120573;27;20031;-83
2023/12/30 12:12:37;;;;;;;11.93;9.65;;;8.20;99.90;;;;;;5104814;27;20031;-83
2023/12/30 12:15:04;;;;;;;11.50;9.60;;;8.10;99.90;;;;;;5120335;27;20035;-83
2023/12/30 12:17:30;;;;;;;12.60;9.77;;;8.10;99.90;;;;;;5126665;27;20042;-83
2023/12/30 12:19:57;;;;;;;10.07;9.07;;;8.00;99.90;;;;;;5105639;27;20039;-84
2023/12/30 12:22:22;;;;;;;15.88;10.05;;;8.10;99.90;;;;;;5123419;27;20407;-83
2023/12/30 12:24:48;;;;;;;12.48;10.10;;;8.10;99.90;;;;;;5099285;27;20087;-82
2023/12/30 12:27:23;;;;;;;11.45;10.23;;;8.20;99.90;;;;;;5118638;27;20035;-82
2023/12/30 12:29:50;;;;;;;13.85;10.15;;;8.30;99.90;;;;;;5135986;27;20122;-83
2023/12/30 12:32:21;;;;;;;10.90;9.23;;;8.30;99.90;;;;;;5114851;27;20035;-83
2023/12/30 12:34:47;;;;;;;12.57;9.15;;;8.40;99.90;;;;;;5123010;27;20039;-84